createdAt,value
2023-06-24T00:00:41.810Z,15.43
2023-06-24T00:03:13.660Z,15.41
2023-06-24T00:05:44.791Z,15.40
2023-06-24T00:08:35.696Z,15.37
2023-06-24T00:11:05.016Z,15.32
2023-06-24T00:13:34.873Z,15.32
2023-06-24T00:16:07.657Z,15.30
2023-06-24T00:18:42.123Z,15.28
2023-06-24T00:21:10.820Z,15.24
2023-06-24T00:23:38.400Z,15.23
2023-06-24T00:26:08.580Z,15.25
2023-06-24T00:28:38.845Z,15.22
2023-06-24T00:31:09.227Z,15.17
2023-06-24T00:33:39.675Z,15.14
2023-06-24T00:36:12.907Z,15.09
2023-06-24T00:38:42.459Z,15.03
2023-06-24T00:41:13.610Z,14.98
2023-06-24T00:43:43.209Z,15.00
2023-06-24T00:46:15.099Z,14.95
2023-06-24T00:48:44.603Z,14.94
2023-06-24T00:51:14.862Z,14.98
2023-06-24T00:53:45.072Z,14.97
2023-06-24T00:56:20.189Z,14.93
2023-06-24T00:58:51.651Z,14.95
2023-06-24T01:01:21.538Z,14.94
2023-06-24T01:03:51.697Z,14.96
2023-06-24T01:06:22.525Z,14.91
2023-06-24T01:08:57.513Z,14.86
2023-06-24T01:11:36.162Z,14.85
2023-06-24T01:14:06.550Z,14.83
2023-06-24T01:17:24.653Z,14.78
2023-06-24T01:20:14.595Z,14.72
2023-06-24T01:23:31.424Z,14.65
2023-06-24T01:26:50.895Z,14.63
2023-06-24T01:30:11.092Z,14.66
2023-06-24T01:33:05.805Z,14.63
2023-06-24T01:35:38.051Z,14.58
2023-06-24T01:38:41.182Z,14.54
2023-06-24T01:41:22.496Z,14.48
2023-06-24T01:43:57.907Z,14.38
2023-06-24T01:46:31.660Z,14.35
2023-06-24T01:49:10.389Z,14.31
2023-06-24T01:51:43.041Z,14.30
2023-06-24T01:54:20.549Z,14.26
2023-06-24T01:57:00.242Z,14.25
2023-06-24T01:59:32.950Z,14.22
2023-06-24T02:02:08.626Z,14.18
2023-06-24T02:04:41.897Z,14.16
2023-06-24T02:07:18.035Z,14.15
2023-06-24T02:09:49.346Z,14.12
2023-06-24T02:12:22.713Z,14.13
2023-06-24T02:14:57.429Z,14.03
2023-06-24T02:17:31.219Z,14.03
2023-06-24T02:20:06.488Z,14.01
2023-06-24T02:22:41.691Z,14.03
2023-06-24T02:25:12.977Z,13.97
2023-06-24T02:27:45.365Z,13.93
2023-06-24T02:30:18.787Z,13.89
2023-06-24T02:32:49.694Z,13.87
2023-06-24T02:35:20.128Z,13.81
2023-06-24T02:37:49.729Z,13.80
2023-06-24T02:40:17.789Z,13.77
2023-06-24T02:42:48.180Z,13.72
2023-06-24T02:45:18.884Z,13.65
2023-06-24T02:47:52.179Z,13.60
2023-06-24T02:50:25.722Z,13.58
2023-06-24T02:52:58.743Z,13.56
2023-06-24T02:55:31.611Z,13.53
2023-06-24T02:58:08.728Z,13.50
2023-06-24T03:00:39.812Z,13.45
2023-06-24T03:03:11.975Z,13.42
2023-06-24T03:05:46.028Z,13.36
2023-06-24T03:08:17.358Z,13.35
2023-06-24T03:10:48.031Z,13.32
2023-06-24T03:13:18.434Z,13.28
2023-06-24T03:15:48.856Z,13.27
2023-06-24T03:18:19.536Z,13.23
2023-06-24T03:20:49.868Z,13.20
2023-06-24T03:23:20.482Z,13.20
2023-06-24T03:25:50.797Z,13.20
2023-06-24T03:28:21.473Z,13.16
2023-06-24T03:30:51.793Z,13.18
2023-06-24T03:33:22.274Z,13.17
2023-06-24T03:35:52.991Z,13.17
2023-06-24T03:38:23.651Z,13.19
2023-06-24T03:40:53.950Z,13.21
2023-06-24T03:43:24.227Z,13.22
2023-06-24T03:45:54.817Z,13.22
2023-06-24T03:48:25.105Z,13.21
2023-06-24T03:50:55.752Z,13.24
2023-06-24T03:53:26.185Z,13.22
2023-06-24T03:55:56.505Z,13.21
2023-06-24T03:58:26.795Z,13.24
2023-06-24T04:01:00.500Z,13.28
2023-06-24T04:03:30.898Z,13.35
2023-06-24T04:05:59.729Z,13.41
2023-06-24T04:08:30.543Z,13.49
2023-06-24T04:11:04.647Z,13.54
2023-06-24T04:13:35.828Z,13.56
2023-06-24T04:16:06.672Z,13.58
2023-06-24T04:18:40.748Z,13.55
2023-06-24T04:21:11.227Z,13.60
2023-06-24T04:23:41.548Z,13.66
2023-06-24T04:26:11.735Z,13.70
2023-06-24T04:28:41.998Z,13.76
2023-06-24T04:31:12.404Z,13.77
2023-06-24T04:33:42.759Z,13.85
2023-06-24T04:36:13.729Z,13.82
2023-06-24T04:38:44.346Z,13.82
2023-06-24T04:41:14.982Z,13.79
2023-06-24T04:43:45.832Z,13.81
2023-06-24T04:46:16.167Z,13.95
2023-06-24T04:48:46.464Z,14.02
2023-06-24T04:51:16.922Z,14.10
2023-06-24T04:53:47.155Z,14.21
2023-06-24T04:56:17.541Z,14.33
2023-06-24T04:58:47.866Z,14.43
2023-06-24T05:01:19.341Z,14.52
2023-06-24T05:03:49.742Z,14.57
2023-06-24T05:06:20.112Z,14.56
2023-06-24T05:08:50.442Z,14.60
2023-06-24T05:11:20.791Z,14.70
2023-06-24T05:13:51.026Z,14.88
2023-06-24T05:16:21.389Z,15.05
2023-06-24T05:18:51.934Z,15.06
2023-06-24T05:21:22.336Z,15.00
2023-06-24T05:23:52.520Z,14.93
2023-06-24T05:26:22.801Z,14.87
2023-06-24T05:28:52.989Z,14.93
2023-06-24T05:31:23.217Z,14.95
2023-06-24T05:33:53.404Z,14.92
2023-06-24T05:36:23.687Z,14.92
2023-06-24T05:38:54.306Z,15.06
2023-06-24T05:41:24.592Z,15.26
2023-06-24T05:44:12.915Z,15.41
2023-06-24T05:46:43.107Z,15.51
2023-06-24T05:49:13.678Z,15.63
2023-06-24T05:51:43.905Z,15.80
2023-06-24T05:54:14.240Z,15.93
2023-06-24T05:56:44.535Z,16.02
2023-06-24T05:59:14.789Z,16.27
2023-06-24T06:01:45.119Z,16.40
2023-06-24T06:04:15.588Z,16.46
2023-06-24T06:06:45.911Z,16.59
2023-06-24T06:09:16.285Z,16.66
2023-06-24T06:11:46.500Z,16.73
2023-06-24T06:14:16.485Z,16.83
2023-06-24T06:16:46.355Z,17.11
2023-06-24T06:19:16.528Z,17.35
2023-06-24T06:21:45.980Z,17.50
2023-06-24T06:24:15.832Z,17.53
2023-06-24T06:26:46.610Z,17.62
2023-06-24T06:29:16.826Z,17.81
2023-06-24T06:31:46.817Z,18.19
2023-06-24T06:34:16.844Z,18.41
2023-06-24T06:36:46.720Z,18.54
2023-06-24T06:39:16.900Z,18.75
2023-06-24T06:41:46.715Z,18.84
2023-06-24T06:44:17.008Z,18.93
2023-06-24T06:46:47.507Z,19.01
2023-06-24T06:49:17.484Z,18.87
2023-06-24T06:51:47.605Z,19.06
2023-06-24T06:54:17.898Z,19.26
2023-06-24T06:56:47.465Z,19.41
2023-06-24T06:59:17.742Z,19.40
2023-06-24T07:01:48.130Z,19.21
2023-06-24T07:04:17.966Z,19.09
2023-06-24T07:06:48.355Z,19.12
2023-06-24T07:09:18.326Z,19.37
2023-06-24T07:11:46.632Z,19.58
2023-06-24T07:14:14.922Z,19.71
2023-06-24T07:16:43.517Z,19.90
2023-06-24T07:19:11.909Z,19.84
2023-06-24T07:21:40.977Z,19.95
2023-06-24T07:24:11.222Z,20.19
2023-06-24T07:26:44.256Z,20.39
2023-06-24T07:29:12.889Z,20.43
2023-06-24T07:31:41.551Z,20.30
2023-06-24T07:34:10.162Z,20.18
2023-06-24T07:36:38.851Z,20.41
2023-06-24T07:39:08.887Z,20.59
2023-06-24T07:41:37.342Z,20.78
2023-06-24T07:44:07.166Z,20.83
2023-06-24T07:46:37.125Z,20.39
2023-06-24T07:49:07.190Z,20.34
2023-06-24T07:51:37.183Z,20.45
2023-06-24T07:54:06.993Z,20.73
2023-06-24T07:56:36.988Z,20.76
2023-06-24T07:59:07.202Z,20.82
2023-06-24T08:01:37.182Z,20.45
2023-06-24T08:04:07.448Z,19.84
2023-06-24T08:06:37.488Z,19.41
2023-06-24T08:09:07.542Z,19.44
2023-06-24T08:11:37.912Z,19.87
2023-06-24T08:14:08.482Z,20.52
2023-06-24T08:16:42.854Z,20.85
2023-06-24T08:19:12.578Z,20.94
2023-06-24T08:21:42.838Z,21.02
2023-06-24T08:24:13.062Z,20.83
2023-06-24T08:26:42.971Z,20.90
2023-06-24T08:29:13.000Z,21.42
2023-06-24T08:31:43.257Z,21.51
2023-06-24T08:34:13.238Z,21.34
2023-06-24T08:36:44.182Z,20.85
2023-06-24T08:39:14.599Z,20.62
2023-06-24T08:41:45.398Z,20.48
2023-06-24T08:44:15.961Z,20.43
2023-06-24T08:46:46.332Z,20.62
2023-06-24T08:49:32.184Z,21.01
2023-06-24T08:52:17.847Z,21.24
2023-06-24T08:54:53.079Z,21.44
2023-06-24T08:57:23.272Z,21.63
2023-06-24T08:59:55.026Z,21.66
2023-06-24T09:02:25.618Z,21.08
2023-06-24T09:04:56.212Z,21.15
2023-06-24T09:07:30.180Z,21.11
2023-06-24T09:10:01.882Z,21.21
2023-06-24T09:12:37.240Z,21.34
2023-06-24T09:15:08.669Z,21.46
2023-06-24T09:17:47.753Z,21.61
2023-06-24T09:20:23.072Z,21.34
2023-06-24T09:22:53.375Z,21.11
2023-06-24T09:25:21.891Z,21.10
2023-06-24T09:27:53.630Z,21.49
2023-06-24T09:30:24.700Z,21.39
2023-06-24T09:32:55.553Z,21.34
2023-06-24T09:35:27.468Z,21.46
2023-06-24T09:38:01.920Z,21.46
2023-06-24T09:40:36.356Z,21.52
2023-06-24T09:43:04.958Z,21.60
2023-06-24T09:45:34.408Z,21.58
2023-06-24T09:48:05.995Z,21.74
2023-06-24T09:50:35.867Z,21.75
2023-06-24T09:53:07.562Z,21.71
2023-06-24T09:55:45.083Z,21.88
2023-06-24T09:58:20.544Z,21.95
2023-06-24T10:00:51.720Z,22.22
2023-06-24T10:03:21.211Z,22.36
2023-06-24T10:05:51.765Z,22.29
2023-06-24T10:08:21.452Z,21.96
2023-06-24T10:12:12.673Z,21.82
2023-06-24T10:14:46.012Z,21.86
2023-06-24T10:17:15.781Z,21.81
2023-06-24T10:19:46.384Z,21.92
2023-06-24T10:22:16.893Z,21.95
2023-06-24T10:24:48.848Z,22.09
2023-06-24T10:27:24.093Z,22.26
2023-06-24T10:29:59.478Z,22.25
2023-06-24T10:32:46.278Z,22.34
2023-06-24T10:35:33.536Z,22.33
2023-06-24T10:38:03.890Z,22.41
2023-06-24T10:40:45.168Z,22.46
2023-06-24T10:43:30.868Z,22.50
2023-06-24T10:46:00.679Z,22.41
2023-06-24T10:48:29.176Z,22.42
2023-06-24T10:50:59.574Z,22.36
2023-06-24T10:53:31.578Z,22.46
2023-06-24T10:56:01.062Z,22.58
2023-06-24T10:58:30.986Z,22.40
2023-06-24T11:01:10.273Z,22.33
2023-06-24T11:03:42.972Z,22.33
2023-06-24T11:06:13.299Z,22.46
2023-06-24T11:08:48.260Z,22.35
2023-06-24T11:11:24.710Z,22.23
2023-06-24T11:13:52.227Z,22.36
2023-06-24T11:16:23.358Z,22.39
2023-06-24T11:18:52.821Z,22.47
2023-06-24T11:21:34.561Z,22.36
2023-06-24T11:24:04.686Z,22.43
2023-06-24T11:26:34.413Z,22.66
2023-06-24T11:29:12.488Z,22.83
2023-06-24T11:31:42.440Z,22.92
2023-06-24T11:34:12.385Z,22.82
2023-06-24T11:36:42.964Z,22.76
2023-06-24T11:39:29.621Z,22.61
2023-06-24T11:41:59.731Z,22.55
2023-06-24T11:44:27.113Z,22.55
2023-06-24T11:47:10.410Z,22.61
2023-06-24T11:49:57.120Z,22.54
2023-06-24T11:52:55.774Z,22.74
2023-06-24T11:55:27.702Z,22.91
2023-06-24T11:58:10.563Z,22.93
2023-06-24T12:00:45.041Z,22.87
2023-06-24T12:03:16.203Z,22.83
2023-06-24T12:05:49.368Z,23.01
2023-06-24T12:08:19.639Z,22.90
2023-06-24T12:10:50.184Z,22.70
2023-06-24T12:13:20.112Z,22.73
2023-06-24T12:15:50.488Z,22.83
2023-06-24T12:18:20.153Z,22.89
2023-06-24T12:20:50.065Z,23.01
2023-06-24T12:23:20.159Z,23.04
2023-06-24T12:25:50.137Z,23.14
2023-06-24T12:28:20.247Z,23.13
2023-06-24T12:30:50.360Z,23.22
2023-06-24T12:33:22.289Z,23.26
2023-06-24T12:35:52.477Z,23.38
2023-06-24T12:38:22.477Z,23.43
2023-06-24T12:40:52.986Z,23.43
2023-06-24T12:43:22.375Z,23.49
2023-06-24T12:45:52.530Z,23.48
2023-06-24T12:48:23.210Z,23.34
2023-06-24T12:50:54.609Z,23.36
2023-06-24T12:53:25.039Z,23.33
2023-06-24T12:55:55.172Z,23.42
2023-06-24T12:58:27.490Z,23.40
2023-06-24T13:00:57.685Z,23.37
2023-06-24T13:03:28.188Z,23.50
2023-06-24T13:05:58.702Z,23.51
2023-06-24T13:08:29.075Z,23.54
2023-06-24T13:10:58.843Z,23.48
2023-06-24T13:13:28.944Z,23.45
2023-06-24T13:15:59.041Z,23.55
2023-06-24T13:18:29.304Z,23.70
2023-06-24T13:21:14.637Z,23.81
2023-06-24T13:23:44.576Z,24.00
2023-06-24T13:26:12.881Z,23.96
2023-06-24T13:28:41.889Z,24.00
2023-06-24T13:31:09.909Z,24.15
2023-06-24T13:33:38.695Z,24.13
2023-06-24T13:36:26.657Z,24.08
2023-06-24T13:38:57.084Z,24.18
2023-06-24T13:41:30.496Z,24.30
2023-06-24T13:44:05.766Z,24.38
2023-06-24T13:46:36.090Z,24.42
2023-06-24T13:49:06.653Z,24.53
2023-06-24T13:51:37.306Z,24.70
2023-06-24T13:54:07.574Z,24.72
2023-06-24T13:56:38.374Z,24.81
2023-06-24T13:59:08.686Z,24.97
2023-06-24T14:01:39.236Z,24.99
2023-06-24T14:04:09.537Z,24.99
2023-06-24T14:06:39.921Z,25.27
2023-06-24T14:09:10.666Z,25.52
2023-06-24T14:11:41.622Z,25.53
2023-06-24T14:14:11.967Z,25.34
2023-06-24T14:16:42.197Z,25.33
2023-06-24T14:19:12.799Z,25.42
2023-06-24T14:21:43.294Z,25.55
2023-06-24T14:24:16.651Z,25.81
2023-06-24T14:26:50.797Z,25.78
2023-06-24T14:29:21.168Z,25.85
2023-06-24T14:31:53.248Z,25.93
2023-06-24T14:34:23.621Z,25.98
2023-06-24T14:37:21.927Z,25.92
2023-06-24T14:39:52.322Z,26.11
2023-06-24T14:42:21.496Z,26.43
2023-06-24T15:07:47.365Z,27.10
2023-06-24T15:10:14.761Z,27.36
2023-06-24T15:12:43.331Z,27.23
2023-06-24T15:15:12.188Z,26.90
2023-06-24T15:17:46.098Z,26.83
2023-06-24T15:20:16.486Z,27.15
2023-06-24T15:22:46.873Z,27.47
2023-06-24T15:25:17.193Z,27.22
2023-06-24T15:27:46.448Z,27.02
2023-06-24T15:30:18.960Z,27.19
2023-06-24T15:32:49.186Z,27.57
2023-06-24T15:35:19.628Z,27.85
2023-06-24T15:37:50.339Z,27.82
2023-06-24T15:40:20.719Z,27.68
2023-06-24T15:42:50.900Z,27.01
2023-06-24T15:45:22.422Z,26.37
2023-06-24T15:47:50.668Z,25.92
2023-06-24T15:50:19.111Z,25.90
2023-06-24T15:52:47.640Z,26.32
2023-06-24T15:55:17.591Z,26.70
2023-06-24T15:57:48.097Z,26.95
2023-06-24T16:00:20.252Z,27.01
2023-06-24T16:02:50.743Z,27.13
2023-06-24T16:05:21.205Z,27.32
2023-06-24T16:07:51.417Z,27.06
2023-06-24T16:10:21.620Z,26.92
2023-06-24T16:12:51.835Z,27.39
2023-06-24T16:19:40.788Z,27.22
2023-06-24T16:22:08.555Z,26.32
2023-06-24T16:24:37.173Z,26.12
2023-06-24T16:27:06.075Z,26.33
2023-06-24T16:29:33.989Z,26.58
2023-06-24T16:32:03.300Z,26.99
2023-06-24T16:34:30.998Z,27.29
2023-06-24T16:36:59.207Z,27.14
2023-06-24T16:39:27.272Z,26.99
2023-06-24T16:41:55.786Z,26.92
2023-06-24T16:44:24.153Z,27.11
2023-06-24T16:46:52.529Z,27.62
2023-06-24T16:49:21.121Z,27.78
2023-06-24T16:51:49.392Z,27.89
2023-06-24T16:54:18.186Z,27.70
2023-06-24T16:56:46.258Z,27.95
2023-06-24T16:59:15.272Z,27.87
2023-06-24T17:01:43.138Z,27.76
2023-06-24T17:04:11.456Z,27.97
2023-06-24T17:06:39.973Z,27.63
2023-06-24T17:09:08.326Z,26.77
2023-06-24T17:11:36.691Z,26.45
2023-06-24T17:14:05.221Z,25.99
2023-06-24T17:16:33.877Z,25.62
2023-06-24T17:19:02.385Z,26.00
2023-06-24T17:21:30.506Z,26.27
2023-06-24T17:23:59.047Z,25.88
2023-06-24T17:26:27.406Z,25.45
2023-06-24T17:28:55.748Z,25.39
2023-06-24T17:31:24.570Z,25.86
2023-06-24T17:33:55.170Z,25.90
2023-06-24T17:36:24.657Z,25.62
2023-06-24T17:38:54.647Z,25.19
2023-06-24T17:41:25.053Z,24.99
2023-06-24T17:43:54.812Z,24.91
2023-06-24T17:46:24.686Z,24.95
2023-06-24T17:48:55.681Z,24.84
2023-06-24T17:51:25.906Z,24.66
2023-06-24T17:53:55.819Z,24.54
2023-06-24T17:56:27.076Z,24.46
2023-06-24T17:58:57.275Z,24.27
2023-06-24T18:01:30.595Z,24.58
2023-06-24T18:03:59.149Z,25.30
2023-06-24T18:06:27.677Z,26.16
2023-06-24T18:08:55.850Z,25.86
2023-06-24T18:11:24.720Z,25.82
2023-06-24T18:13:52.819Z,25.27
2023-06-24T18:16:21.433Z,24.65
2023-06-24T18:18:49.843Z,24.15
2023-06-24T18:21:18.812Z,23.83
2023-06-24T18:23:46.913Z,23.49
2023-06-24T18:26:16.996Z,23.16
2023-06-24T18:28:46.566Z,22.90
2023-06-24T18:31:14.986Z,22.78
2023-06-24T18:33:43.390Z,22.67
2023-06-24T18:36:13.798Z,22.58
2023-06-24T18:38:44.178Z,22.47
2023-06-24T18:41:14.584Z,22.33
2023-06-24T18:43:44.775Z,22.14
2023-06-24T18:46:16.936Z,21.98
2023-06-24T18:48:48.332Z,21.82
2023-06-24T18:51:18.520Z,21.61
2023-06-24T18:53:49.578Z,21.45
2023-06-24T18:56:19.808Z,21.26
2023-06-24T18:58:50.039Z,21.12
2023-06-24T19:01:20.450Z,21.00
2023-06-24T19:03:50.622Z,20.89
2023-06-24T19:06:20.773Z,20.74
2023-06-24T19:11:24.313Z,20.53
2023-06-24T19:13:54.778Z,20.42
2023-06-24T19:16:24.936Z,20.31
2023-06-24T19:18:53.526Z,20.23
2023-06-24T19:21:21.820Z,20.11
2023-06-24T19:23:50.277Z,19.97
2023-06-24T19:26:18.770Z,19.85
2023-06-24T19:28:47.783Z,19.73
2023-06-24T19:31:16.337Z,19.61
2023-06-24T19:33:44.651Z,19.53
2023-06-24T19:36:13.215Z,19.43
2023-06-24T19:38:41.506Z,19.26
2023-06-24T19:41:16.403Z,19.10
2023-06-24T19:43:50.734Z,18.94
2023-06-24T19:46:31.935Z,18.84
2023-06-24T19:49:11.805Z,18.74
2023-06-24T19:51:44.447Z,18.68
2023-06-24T19:54:14.744Z,18.61
2023-06-24T19:56:44.946Z,18.53
2023-06-24T19:59:15.111Z,18.45
2023-06-24T20:01:45.336Z,18.37
2023-06-24T20:04:15.640Z,18.28
2023-06-24T20:06:45.979Z,18.22
2023-06-24T20:09:16.508Z,18.16
2023-06-24T20:11:46.812Z,18.11
2023-06-24T20:14:17.065Z,18.04
2023-06-24T20:16:47.461Z,17.93
2023-06-24T20:19:18.025Z,17.84
2023-06-24T20:21:48.272Z,17.77
2023-06-24T20:24:18.468Z,17.70
2023-06-24T20:26:50.332Z,17.61
2023-06-24T20:29:22.575Z,17.52
2023-06-24T20:31:50.997Z,17.42
2023-06-24T20:34:19.374Z,17.34
2023-06-24T20:36:48.118Z,17.29
2023-06-24T20:39:16.276Z,17.21
2023-06-24T20:41:44.641Z,17.19
2023-06-24T20:44:13.945Z,17.14
2023-06-24T20:46:44.501Z,17.07
2023-06-24T20:49:12.897Z,17.03
2023-06-24T20:51:46.291Z,16.99
2023-06-24T20:54:16.676Z,16.91
2023-06-24T20:56:47.222Z,16.83
2023-06-24T20:59:17.366Z,16.77
2023-06-24T21:01:47.642Z,16.73
2023-06-24T21:04:17.899Z,16.63
2023-06-24T21:06:48.153Z,16.56
2023-06-24T21:09:19.434Z,16.51
2023-06-24T21:11:49.599Z,16.48
2023-06-24T21:14:19.944Z,16.45
2023-06-24T21:16:50.148Z,16.45
2023-06-24T21:19:20.298Z,16.41
2023-06-24T21:21:50.546Z,16.33
2023-06-24T21:24:20.738Z,16.28
2023-06-24T21:26:50.921Z,16.26
2023-06-24T21:29:21.085Z,16.23
2023-06-24T21:31:49.606Z,16.20
2023-06-24T21:34:18.136Z,16.14
2023-06-24T21:36:46.533Z,16.11
2023-06-24T21:39:15.954Z,16.07
2023-06-24T21:41:44.475Z,16.04
2023-06-24T21:44:12.106Z,16.01
2023-06-24T21:46:40.635Z,15.99
2023-06-24T21:49:11.591Z,15.96
2023-06-24T21:51:41.763Z,15.91
2023-06-24T21:54:11.938Z,15.84
2023-06-24T21:56:42.905Z,15.78
2023-06-24T21:59:14.461Z,15.73
2023-06-24T22:01:44.773Z,15.67
2023-06-24T22:04:15.082Z,15.64
2023-06-24T22:06:45.385Z,15.63
2023-06-24T22:09:19.915Z,15.63
2023-06-24T22:11:50.220Z,15.58
2023-06-24T22:14:20.478Z,15.55
2023-06-24T22:16:50.726Z,15.53
2023-06-24T22:19:21.394Z,15.51
2023-06-24T22:21:51.787Z,15.47
2023-06-24T22:24:22.025Z,15.45
2023-06-24T22:26:52.444Z,15.41
2023-06-24T22:29:20.715Z,15.36
2023-06-24T22:31:49.272Z,15.33
2023-06-24T22:34:17.614Z,15.31
2023-06-24T22:36:46.086Z,15.30
2023-06-24T22:39:16.074Z,15.26
2023-06-24T22:41:46.176Z,15.24
2023-06-24T22:44:14.618Z,15.22
2023-06-24T22:46:42.933Z,15.20
2023-06-24T22:49:11.340Z,15.20
2023-06-24T22:51:39.815Z,15.18
2023-06-24T22:54:09.496Z,15.17
2023-06-24T22:56:37.748Z,15.14
2023-06-24T22:59:06.438Z,15.09
2023-06-24T23:01:35.713Z,14.98
2023-06-24T23:04:04.264Z,14.89
2023-06-24T23:06:32.436Z,14.84
2023-06-24T23:09:00.555Z,14.81
2023-06-24T23:11:29.277Z,14.81
2023-06-24T23:13:58.388Z,14.82
2023-06-24T23:16:26.586Z,14.82
2023-06-24T23:18:55.325Z,14.81
2023-06-24T23:21:23.608Z,14.77
2023-06-24T23:23:53.334Z,14.70
2023-06-24T23:26:28.448Z,14.65
2023-06-24T23:29:07.590Z,14.64
2023-06-24T23:31:40.848Z,14.64
2023-06-24T23:34:12.118Z,14.64
2023-06-24T23:36:43.451Z,14.58
2023-06-24T23:39:14.716Z,14.53
2023-06-24T23:41:45.458Z,14.49
2023-06-24T23:44:16.373Z,14.49
2023-06-24T23:46:46.765Z,14.46
2023-06-24T23:49:17.068Z,14.44
2023-06-24T23:51:47.500Z,14.43
2023-06-24T23:54:19.038Z,14.43
2023-06-24T23:56:49.426Z,14.40
2023-06-24T23:59:19.642Z,14.38
